Black Bear Gran Fondo
Skip Navigation Links
Results
Details
Mobile Results
Jul 14 2018
HyperLink
Results Determined by "Net" Time - Start Mat to Finish Mat.
Page 1 of 2 (61 items)
[1]2
Net Pos
Race No
Fav
Share
Print
Name
Time
Net Time
Category
Net Cat Pos
Age
Gender
Net Gen Pos
City
State
Pace *
Start
Finish
9Matthew BissettDNSDNS41 - 4542MaleSouth LyonMichigan m/hr
10Quinn BosworthDNSDNS56 - 6058MaleWilliamstonMichigan m/hr
13Richard CarlsenDNSDNS71 & Up76MaleTraverse CityMichigan m/hr
16Gary ChastainDNSDNS61 - 7061MaleMantonMichigan m/hr
18Mike DalyDNSDNS56 - 6059MaleTucsonArizona m/hr
19Jenny DavidDNSDNS41 - 5042FemalePrescottMichigan m/hr
20Doyle DavidDNSDNS61 - 7061MalePrescottMichigan m/hr
24Spencer NemecekDNSDNS18 - 3024MaleHiggins LakeMichigan m/hr
65Skip VendolaDNSDNS46 - 5050MaleJacksonMichigan m/hr
4911Jim Brunette10:00:0009:59:3061 - 701061Male35Bay CityMichigan10.0 m/hr00:00:2910:00:00
5027Jim Gauthier10:00:0009:59:3061 - 701163Male36Traverse CityMichigan10.0 m/hr00:00:2910:00:00
4861Emily Siegert08:35:0008:34:2831 - 40436Female12ClareMichigan11.7 m/hr00:00:3108:35:00
4768Krista Yurga08:09:3408:09:0018 - 30228Female11ClareMichigan12.3 m/hr00:00:3308:09:34
4659Steve Siegert08:05:0008:04:2761 - 70965Male34ClareMichigan12.4 m/hr00:00:3208:05:00
4560Bryan Siegert08:05:0008:04:2518 - 30226Male33ClareMichigan12.4 m/hr00:00:3408:05:00
4462Robert Spleet07:04:0007:03:3561 - 70862Male32PlymouthMichigan14.2 m/hr00:00:2407:04:00
4332Mike Heath07:01:3207:01:0956 - 60560Male31ClioMichigan14.2 m/hr00:00:2307:01:32
4212Laura Burnett06:58:4206:58:2041 - 50445Female10DavisonMichigan14.3 m/hr00:00:2106:58:42
4135Scott Kerr06:37:0306:36:4146 - 50248Male30Grand BlancMichigan15.1 m/hr00:00:2106:37:03
4036Lisa Kerr06:37:0306:36:3941 - 50346Female9Grand BlancMichigan15.1 m/hr00:00:2406:37:03
3863Terry Strohecker06:36:3606:36:0841 - 45544Male29NoviMichigan15.1 m/hr00:00:2706:36:36
3946Leslie Morrow06:36:3606:36:1041 - 50244Female8PontiacMichigan15.1 m/hr00:00:2506:36:36
3745Ross Miller06:35:1306:34:5141 - 45444Male28ShepherdMichigan15.2 m/hr00:00:2106:35:13
3615Anthony Chambers06:31:0406:30:4531 - 40432Male27Otter LakeMichigan15.4 m/hr00:00:1806:31:04
3523Bernie Eng06:27:5206:27:1451 - 55651Male26SaginawMichigan15.5 m/hr00:00:3706:27:52
3472Jennifer Zielinski06:25:2506:24:4541 - 50146Female7EssexvilleMichigan15.6 m/hr00:00:3906:25:25
333Tsukasa Arai06:15:0106:14:5131 - 40336Male25Shelby Twp.Michigan16.0 m/hr00:00:1006:15:01
327Helmut Bender06:14:0106:13:3431 - 40236Male24Grand RapidsMichigan16.1 m/hr00:00:2706:14:01
3022Patricia Eilers06:00:2906:00:1051 - 60154Female6GraylingMichigan16.7 m/hr00:00:1806:00:29
2839Dale Lapointe05:59:3105:59:2651 - 55554Male22RoscommonMichigan16.7 m/hr00:00:0405:59:31
2974Jennifer Hatfield06:00:3006:00:1031 - 40339Female5GraylingMichigan16.7 m/hr00:00:2006:00:30
3152Len Radwanski06:00:3006:00:1161 - 70761Male23New BostonMichigan16.7 m/hr00:00:1806:00:30
2637Jill Kiepura05:57:3805:57:0731 - 40231Female4Ann ArborMichigan16.8 m/hr00:00:3005:57:38
2721Austin Depottey05:58:1905:58:0418 - 30126Male21PetoskeyMichigan16.8 m/hr00:00:1505:58:19
2550Matt Peterson05:50:3905:50:1341 - 45345Male20GaylordMichigan17.1 m/hr00:00:2605:50:39
2473Kevin - Linda Morrison05:45:1805:45:16Tandem257Mixed2Howell 17.4 m/hr00:00:0105:45:18
236Marvin Ballast05:45:1905:45:1556 - 60456Male19HowellMichigan17.4 m/hr00:00:0405:45:19
225Michael Ayre05:36:4305:36:3841 - 45243Male18LakewoodColorado17.8 m/hr00:00:0505:36:43
2147James Murray05:33:2705:33:0361 - 70668Male17GodfreyIllinois18.0 m/hr00:00:2305:33:27
178Gregory Worsnop05:30:5405:30:5161 - 70363Male13Paw PawMichigan18.1 m/hr00:00:0305:30:54
152Deb-Steve Angst05:31:0405:30:44Tandem160Mixed1ChesterfieldMichigan18.1 m/hr00:00:2005:31:04
144Samantha Austin05:30:5505:30:3718 - 30125Female3RiponWisconsin18.1 m/hr00:00:1705:30:55
1933Walter Johnson05:31:0505:30:5661 - 70568Male15Rochester HillsMichigan18.1 m/hr00:00:0805:31:05
1834Gerald Jones05:31:0605:30:5161 - 70466Male14ClioMichigan18.1 m/hr00:00:1405:31:06
1642Joseph Mccormick05:31:0505:30:4851 - 55354Male12Clinton TwpMichigan18.1 m/hr00:00:1705:31:05
2043Scott Mcgovern05:31:0505:31:0151 - 55452Male16Clinton TownshipMichigan18.1 m/hr00:00:0405:31:05
1314Leo Catalla05:30:0905:30:0051 - 55252Male11LivoniaMichigan18.2 m/hr00:00:0905:30:09
1231Fred Hancock05:26:0705:26:0061 - 70264Male10Sault Ste MarieMichigan18.4 m/hr00:00:0705:26:07
1130Wanda Hancock05:22:5805:22:5061 - 70161Female2Sault Ste. MarieMichigan18.6 m/hr00:00:0805:22:58
1058John Schulz05:02:2905:02:1656 - 60357Male9HemlockMichigan19.8 m/hr00:00:1205:02:29
Page 1 of 2 (61 items)
[1]2

HyperLink Copyright (c) G Vincent, 2018